createdAt,value
2022-12-25T00:02:24.867Z,71.56
2022-12-25T00:04:56.692Z,71.86
2022-12-25T00:07:28.268Z,72.49
2022-12-25T00:09:59.845Z,73.69
2022-12-25T00:12:31.465Z,74.12
2022-12-25T00:15:03.770Z,74.69
2022-12-25T00:17:35.422Z,74.30
2022-12-25T00:20:08.372Z,73.20
2022-12-25T00:22:39.972Z,72.38
2022-12-25T00:25:11.570Z,71.20
2022-12-25T00:27:43.180Z,71.02
2022-12-25T00:30:14.881Z,71.53
2022-12-25T00:32:46.456Z,70.48
2022-12-25T00:35:18.287Z,71.16
2022-12-25T00:37:49.863Z,69.67
2022-12-25T00:40:21.404Z,73.04
2022-12-25T00:42:53.052Z,71.24
2022-12-25T00:45:24.778Z,72.60
2022-12-25T00:47:56.508Z,71.45
2022-12-25T00:50:28.088Z,71.98
2022-12-25T00:52:59.721Z,71.01
2022-12-25T00:55:31.576Z,69.47
2022-12-25T00:58:03.178Z,69.78
2022-12-25T01:00:34.792Z,69.28
2022-12-25T01:03:06.520Z,69.02
2022-12-25T01:05:38.208Z,69.51
2022-12-25T01:08:10.212Z,70.26
2022-12-25T01:10:41.749Z,69.62
2022-12-25T01:13:13.296Z,70.42
2022-12-25T01:15:44.838Z,71.46
2022-12-25T01:18:16.374Z,70.12
2022-12-25T01:20:48.505Z,70.73
2022-12-25T01:23:20.068Z,69.68
2022-12-25T01:25:51.610Z,70.00
2022-12-25T01:28:23.174Z,72.23
2022-12-25T01:30:54.752Z,70.20
2022-12-25T01:33:28.081Z,70.89
2022-12-25T01:35:59.623Z,70.75
2022-12-25T01:38:31.199Z,69.55
2022-12-25T01:41:02.751Z,69.49
2022-12-25T01:43:34.797Z,69.53
2022-12-25T01:46:06.416Z,70.28
2022-12-25T01:48:39.622Z,69.69
2022-12-25T01:51:26.382Z,70.01
2022-12-25T01:54:04.876Z,71.35
2022-12-25T01:56:40.077Z,70.39
2022-12-25T01:59:17.403Z,71.86
2022-12-25T02:01:49.537Z,71.82
2022-12-25T02:04:42.048Z,71.42
2022-12-25T02:07:20.391Z,71.46
2022-12-25T02:09:53.274Z,70.18
2022-12-25T02:12:30.183Z,70.60
2022-12-25T02:15:15.494Z,70.50
2022-12-25T02:18:07.201Z,71.35
2022-12-25T02:21:04.922Z,72.04
2022-12-25T02:24:21.676Z,71.21
2022-12-25T02:26:56.121Z,70.12
2022-12-25T02:29:56.944Z,70.81
2022-12-25T02:32:52.608Z,70.61
2022-12-25T02:35:31.264Z,70.79
2022-12-25T02:38:12.217Z,70.19
2022-12-25T02:40:51.321Z,70.57
2022-12-25T02:43:43.265Z,71.03
2022-12-25T02:46:19.115Z,72.83
2022-12-25T02:48:59.254Z,71.34
2022-12-25T02:51:37.084Z,70.18
2022-12-25T02:54:17.392Z,70.54
2022-12-25T02:56:52.745Z,70.55
2022-12-25T02:59:28.674Z,71.75
2022-12-25T03:02:04.681Z,71.31
2022-12-25T03:04:39.033Z,71.29
2022-12-25T03:07:17.009Z,71.70
2022-12-25T03:10:00.949Z,72.56
2022-12-25T03:13:01.940Z,71.91
2022-12-25T03:15:34.720Z,73.20
2022-12-25T03:18:15.646Z,73.60
2022-12-25T03:20:47.183Z,72.96
2022-12-25T03:23:24.568Z,73.90
2022-12-25T03:25:56.210Z,73.52
2022-12-25T03:28:29.113Z,72.21
2022-12-25T03:31:18.417Z,75.41
2022-12-25T03:34:15.054Z,74.71
2022-12-25T03:37:00.214Z,73.32
2022-12-25T03:40:14.484Z,75.04
2022-12-25T03:42:59.778Z,74.98
2022-12-25T03:45:53.274Z,76.24
2022-12-25T03:48:30.632Z,77.14
2022-12-25T03:51:12.516Z,74.70
2022-12-25T03:53:56.128Z,74.29
2022-12-25T03:56:31.089Z,72.87
2022-12-25T03:59:02.856Z,73.24
2022-12-25T04:01:34.540Z,73.32
2022-12-25T04:04:06.228Z,72.25
2022-12-25T04:06:38.435Z,72.91
2022-12-25T04:09:09.960Z,72.22
2022-12-25T04:11:41.530Z,72.68
2022-12-25T04:14:14.049Z,71.08
2022-12-25T04:16:45.696Z,71.96
2022-12-25T04:19:17.236Z,72.74
2022-12-25T04:21:48.843Z,71.35
2022-12-25T04:24:20.447Z,73.34
2022-12-25T04:26:52.014Z,72.65
2022-12-25T04:29:23.614Z,74.29
2022-12-25T04:31:55.193Z,74.09
2022-12-25T04:34:29.588Z,75.51
2022-12-25T04:37:01.201Z,74.00
2022-12-25T04:39:32.778Z,72.67
2022-12-25T04:42:04.723Z,71.93
2022-12-25T04:44:36.283Z,72.81
2022-12-25T04:47:11.525Z,71.28
2022-12-25T04:49:43.413Z,74.78
2022-12-25T04:52:14.973Z,75.93
2022-12-25T04:54:46.534Z,77.94
2022-12-25T04:57:18.083Z,77.24
2022-12-25T04:59:49.698Z,78.30
2022-12-25T05:02:21.384Z,76.96
2022-12-25T05:04:53.183Z,76.19
2022-12-25T05:07:24.776Z,79.32
2022-12-25T05:09:56.400Z,78.51
2022-12-25T05:12:27.978Z,77.16
2022-12-25T05:14:59.571Z,78.34
2022-12-25T05:17:31.226Z,78.96
2022-12-25T05:20:03.588Z,77.97
2022-12-25T05:22:35.137Z,78.50
2022-12-25T05:25:07.058Z,77.87
2022-12-25T05:27:38.612Z,76.88
2022-12-25T05:30:10.424Z,78.22
2022-12-25T05:32:42.071Z,76.55
2022-12-25T05:35:14.022Z,76.58
2022-12-25T05:37:45.628Z,76.06
2022-12-25T05:40:17.312Z,76.79
2022-12-25T05:42:49.081Z,75.58
2022-12-25T05:45:20.745Z,75.87
2022-12-25T05:47:52.655Z,74.98
2022-12-25T05:50:24.332Z,75.09
2022-12-25T05:53:11.563Z,75.55
2022-12-25T05:55:43.914Z,75.65
2022-12-25T05:58:15.543Z,76.11
2022-12-25T06:00:47.102Z,75.92
2022-12-25T06:03:18.769Z,76.07
2022-12-25T06:05:50.533Z,74.62
2022-12-25T06:08:22.104Z,74.72
2022-12-25T06:10:53.685Z,73.84
2022-12-25T06:13:25.377Z,74.98
2022-12-25T06:15:57.090Z,75.02
2022-12-25T06:18:28.714Z,74.85
2022-12-25T06:21:00.242Z,73.18
2022-12-25T06:23:31.854Z,74.71
2022-12-25T06:26:10.267Z,73.85
2022-12-25T06:28:42.424Z,73.43
2022-12-25T06:31:17.478Z,73.65
2022-12-25T06:33:49.740Z,74.76
2022-12-25T06:36:27.358Z,73.17
2022-12-25T06:39:02.142Z,72.55
2022-12-25T06:41:33.860Z,71.59
2022-12-25T06:44:05.558Z,71.67
2022-12-25T06:46:37.127Z,70.69
2022-12-25T06:49:10.053Z,71.66
2022-12-25T06:51:41.607Z,70.72
2022-12-25T06:54:13.589Z,70.74
2022-12-25T06:56:45.135Z,71.75
2022-12-25T06:59:17.120Z,70.75
2022-12-25T07:01:55.860Z,71.22
2022-12-25T07:04:30.898Z,71.42
2022-12-25T07:07:08.355Z,71.21
2022-12-25T07:09:41.250Z,69.80
2022-12-25T07:12:19.455Z,69.86
2022-12-25T07:14:54.669Z,69.72
2022-12-25T07:17:26.445Z,69.16
2022-12-25T07:19:58.035Z,69.39
2022-12-25T07:22:29.991Z,70.66
2022-12-25T07:25:01.585Z,69.99
2022-12-25T07:27:33.346Z,72.25
2022-12-25T07:30:05.479Z,72.20
2022-12-25T07:32:37.060Z,73.30
2022-12-25T07:35:08.913Z,72.01
2022-12-25T07:37:40.635Z,71.94
2022-12-25T07:40:12.823Z,70.34
2022-12-25T07:42:44.388Z,69.72
2022-12-25T07:45:16.097Z,70.32
2022-12-25T07:47:47.766Z,70.99
2022-12-25T07:50:19.548Z,69.55
2022-12-25T07:52:51.127Z,69.05
2022-12-25T07:55:23.117Z,68.69
2022-12-25T07:57:54.733Z,68.38
2022-12-25T08:00:26.441Z,68.44
2022-12-25T08:02:59.353Z,68.62
2022-12-25T08:05:32.762Z,68.78
2022-12-25T08:08:04.460Z,67.88
2022-12-25T08:10:36.328Z,67.52
2022-12-25T08:13:14.216Z,68.31
2022-12-25T08:15:46.234Z,68.27
2022-12-25T08:18:17.805Z,69.12
2022-12-25T08:20:49.443Z,69.77
2022-12-25T08:23:21.047Z,71.08
2022-12-25T08:25:52.694Z,71.10
2022-12-25T08:28:24.374Z,73.21
2022-12-25T08:30:56.996Z,72.24
2022-12-25T08:33:28.660Z,71.18
2022-12-25T08:36:06.184Z,71.36
2022-12-25T08:38:38.939Z,71.07
2022-12-25T08:41:11.989Z,71.49
2022-12-25T08:43:44.158Z,69.54
2022-12-25T08:46:16.024Z,68.62
2022-12-25T08:48:49.254Z,68.74
2022-12-25T08:51:24.099Z,68.92
2022-12-25T08:54:00.121Z,69.19
2022-12-25T08:56:32.605Z,67.95
2022-12-25T08:59:04.224Z,67.30
2022-12-25T09:01:35.897Z,67.77
2022-12-25T09:04:07.614Z,68.42
2022-12-25T09:06:39.170Z,71.07
2022-12-25T09:09:10.879Z,70.36
2022-12-25T09:11:42.462Z,71.38
2022-12-25T09:14:14.492Z,71.91
2022-12-25T09:16:46.064Z,75.29
2022-12-25T09:19:17.607Z,77.42
2022-12-25T09:21:49.144Z,78.17
2022-12-25T09:24:20.761Z,76.44
2022-12-25T09:26:52.527Z,77.08
2022-12-25T09:29:24.113Z,76.41
2022-12-25T09:31:55.703Z,74.58
2022-12-25T09:34:27.301Z,75.13
2022-12-25T09:36:58.885Z,76.65
2022-12-25T09:39:30.439Z,78.41
2022-12-25T09:42:10.711Z,76.93
2022-12-25T09:44:55.206Z,78.75
2022-12-25T09:47:31.560Z,77.73
2022-12-25T09:50:07.092Z,76.78
2022-12-25T09:52:50.983Z,75.92
2022-12-25T09:55:25.938Z,77.45
2022-12-25T09:58:01.492Z,77.40
2022-12-25T10:00:54.412Z,77.53
2022-12-25T10:03:28.757Z,77.60
2022-12-25T10:06:18.487Z,78.39
2022-12-25T10:09:02.042Z,77.82
2022-12-25T10:11:51.823Z,78.93
2022-12-25T10:14:29.184Z,77.44
2022-12-25T10:17:11.304Z,78.08
2022-12-25T10:20:07.516Z,77.56
2022-12-25T10:22:47.732Z,78.33
2022-12-25T10:25:25.007Z,78.24
2022-12-25T10:28:10.588Z,79.42
2022-12-25T10:30:43.992Z,78.90
2022-12-25T10:33:17.394Z,77.84
2022-12-25T10:35:49.813Z,77.72
2022-12-25T10:38:22.490Z,78.16
2022-12-25T10:41:12.747Z,78.25
2022-12-25T10:43:55.788Z,78.94
2022-12-25T10:46:29.536Z,78.92
2022-12-25T10:49:03.136Z,78.82
2022-12-25T10:51:38.215Z,78.86
2022-12-25T10:54:22.974Z,78.09
2022-12-25T10:56:57.219Z,78.14
2022-12-25T10:59:34.065Z,76.45
2022-12-25T11:02:18.645Z,78.25
2022-12-25T11:04:52.475Z,78.73
2022-12-25T11:07:26.393Z,77.89
2022-12-25T11:10:05.909Z,79.92
2022-12-25T11:12:44.882Z,79.91
2022-12-25T11:15:40.231Z,80.37
2022-12-25T11:18:48.793Z,81.13
2022-12-25T11:21:28.353Z,80.21
2022-12-25T11:24:02.070Z,80.39
2022-12-25T11:26:48.336Z,79.85
2022-12-25T11:29:28.961Z,79.69
2022-12-25T11:32:04.214Z,79.69
2022-12-25T11:34:42.506Z,78.30
2022-12-25T11:37:29.458Z,79.77
2022-12-25T11:40:02.027Z,78.22
2022-12-25T11:42:41.755Z,77.53
2022-12-25T11:45:37.467Z,79.37
2022-12-25T11:48:19.380Z,79.46
2022-12-25T11:51:03.382Z,78.96
2022-12-25T11:53:43.616Z,79.36
2022-12-25T11:56:20.503Z,79.29
2022-12-25T11:59:10.475Z,79.21
2022-12-25T12:01:49.178Z,78.97
2022-12-25T12:04:36.898Z,77.43
2022-12-25T12:07:27.324Z,76.17
2022-12-25T12:10:23.055Z,76.54
2022-12-25T12:13:00.134Z,75.80
2022-12-25T12:15:51.332Z,76.55
2022-12-25T12:18:26.006Z,77.42
2022-12-25T12:21:19.894Z,75.45
2022-12-25T12:24:01.210Z,74.51
2022-12-25T12:26:37.671Z,76.69
2022-12-25T12:29:25.600Z,74.21
2022-12-25T12:32:01.662Z,74.26
2022-12-25T12:34:42.789Z,74.21
2022-12-25T12:37:34.253Z,74.92
2022-12-25T12:40:21.955Z,72.59
2022-12-25T12:42:54.821Z,75.61
2022-12-25T12:45:32.326Z,75.74
2022-12-25T12:48:24.803Z,75.45
2022-12-25T12:51:05.774Z,77.25
2022-12-25T12:53:42.567Z,76.03
2022-12-25T12:56:19.875Z,76.14
2022-12-25T12:58:51.497Z,77.88
2022-12-25T13:01:35.270Z,75.82
2022-12-25T13:04:31.400Z,76.05
2022-12-25T13:07:16.849Z,76.09
2022-12-25T13:10:13.455Z,74.16
2022-12-25T13:12:45.522Z,76.42
2022-12-25T13:15:19.375Z,76.48
2022-12-25T13:17:51.422Z,75.23
2022-12-25T13:20:40.487Z,75.74
2022-12-25T13:23:29.097Z,74.51
2022-12-25T13:26:18.912Z,74.17
2022-12-25T13:28:50.475Z,73.74
2022-12-25T13:31:27.825Z,72.51
2022-12-25T13:34:20.100Z,73.22
2022-12-25T13:36:51.706Z,74.52
2022-12-25T13:39:23.669Z,74.55
2022-12-25T13:41:55.508Z,75.79
2022-12-25T13:44:31.059Z,75.15
2022-12-25T13:47:30.668Z,73.86
2022-12-25T13:50:30.299Z,74.76
2022-12-25T13:53:13.902Z,75.67
2022-12-25T13:55:51.833Z,76.04
2022-12-25T13:58:28.750Z,74.73
2022-12-25T14:01:03.359Z,73.84
2022-12-25T14:03:37.656Z,73.53
2022-12-25T14:06:15.092Z,72.96
2022-12-25T14:08:48.508Z,75.35
2022-12-25T14:11:24.172Z,74.71
2022-12-25T14:14:03.763Z,71.82
2022-12-25T14:16:36.166Z,73.05
2022-12-25T14:19:30.039Z,73.55
2022-12-25T14:22:19.183Z,69.63
2022-12-25T14:24:51.278Z,70.02
2022-12-25T14:27:29.010Z,70.42
2022-12-25T14:30:00.873Z,68.93
2022-12-25T14:32:43.337Z,69.60
2022-12-25T14:35:23.072Z,70.80
2022-12-25T14:38:00.231Z,73.09
2022-12-25T14:40:33.558Z,71.33
2022-12-25T14:43:23.470Z,70.13
2022-12-25T14:46:00.714Z,69.20
2022-12-25T14:48:33.421Z,67.17
2022-12-25T14:51:14.856Z,66.42
2022-12-25T14:53:51.587Z,65.78
2022-12-25T14:56:26.445Z,65.73
2022-12-25T14:58:59.745Z,65.42
2022-12-25T15:01:39.005Z,63.90
2022-12-25T15:04:10.613Z,64.60
2022-12-25T15:06:58.489Z,67.33
2022-12-25T15:09:30.213Z,65.38
2022-12-25T15:12:02.204Z,66.58
2022-12-25T15:14:33.769Z,67.17
2022-12-25T15:17:05.391Z,68.50
2022-12-25T15:19:38.994Z,67.29
2022-12-25T15:22:13.121Z,66.25
2022-12-25T15:24:48.720Z,67.29
2022-12-25T15:27:20.331Z,66.22
2022-12-25T15:32:43.559Z,65.48
2022-12-25T15:35:18.788Z,66.91
2022-12-25T15:37:50.367Z,68.46
2022-12-25T15:40:21.946Z,66.84
2022-12-25T15:42:56.301Z,65.66
2022-12-25T15:45:29.880Z,65.61
2022-12-25T15:48:01.527Z,66.57
2022-12-25T15:50:33.174Z,67.28
2022-12-25T15:53:04.829Z,68.38
2022-12-25T15:55:36.380Z,67.29
2022-12-25T15:58:13.129Z,66.31
2022-12-25T16:00:44.871Z,66.94
2022-12-25T16:03:16.498Z,67.22
2022-12-25T16:05:48.396Z,69.44
2022-12-25T16:08:20.112Z,68.07
2022-12-25T16:10:51.711Z,68.34
2022-12-25T16:13:23.265Z,67.91
2022-12-25T16:15:54.862Z,68.55
2022-12-25T16:18:26.648Z,68.14
2022-12-25T16:20:59.656Z,68.40
2022-12-25T16:23:31.432Z,67.36
2022-12-25T16:26:03.054Z,68.16
2022-12-25T16:28:34.604Z,67.91
2022-12-25T16:31:06.775Z,67.49
2022-12-25T16:33:38.508Z,68.42
2022-12-25T16:36:10.085Z,68.63
2022-12-25T16:38:42.045Z,67.74
2022-12-25T16:41:14.132Z,69.32
2022-12-25T16:43:45.813Z,68.73
2022-12-25T16:46:20.728Z,69.64
2022-12-25T16:48:52.426Z,69.49
2022-12-25T16:51:24.070Z,69.32
2022-12-25T16:53:55.869Z,69.49
2022-12-25T16:56:27.473Z,68.65
2022-12-25T16:58:59.646Z,67.71
2022-12-25T17:01:31.388Z,68.68
2022-12-25T17:04:03.154Z,69.68
2022-12-25T17:06:35.168Z,68.67
2022-12-25T17:09:07.272Z,69.30
2022-12-25T17:11:38.860Z,68.43
2022-12-25T17:14:10.759Z,68.98
2022-12-25T17:16:42.573Z,68.67
2022-12-25T17:19:23.129Z,69.34
2022-12-25T17:21:54.710Z,70.25
2022-12-25T17:24:27.224Z,67.56
2022-12-25T17:26:58.790Z,68.54
2022-12-25T17:29:30.514Z,69.26
2022-12-25T17:32:02.362Z,69.23
2022-12-25T17:34:34.115Z,68.24
2022-12-25T17:37:05.795Z,68.13
2022-12-25T17:39:37.360Z,67.19
2022-12-25T17:42:10.087Z,69.07
2022-12-25T17:44:41.657Z,71.83
2022-12-25T17:47:13.241Z,70.80
2022-12-25T17:49:46.362Z,70.36
2022-12-25T17:52:17.978Z,69.43
2022-12-25T17:54:49.571Z,69.08
2022-12-25T17:57:21.176Z,69.13
2022-12-25T17:59:52.719Z,70.03
2022-12-25T18:02:24.539Z,70.05
2022-12-25T18:04:56.835Z,70.38
2022-12-25T18:07:28.372Z,69.88
2022-12-25T18:09:59.947Z,70.03
2022-12-25T18:12:31.561Z,69.19
2022-12-25T18:15:03.473Z,69.32
2022-12-25T18:17:35.096Z,70.31
2022-12-25T18:20:07.329Z,70.66
2022-12-25T18:22:38.880Z,69.62
2022-12-25T18:25:10.484Z,70.11
2022-12-25T18:27:42.099Z,71.89
2022-12-25T18:30:13.835Z,70.43
2022-12-25T18:32:45.417Z,74.05
2022-12-25T18:35:17.005Z,72.93
2022-12-25T18:37:48.635Z,72.01
2022-12-25T18:40:20.275Z,71.35
2022-12-25T18:42:56.284Z,71.67
2022-12-25T18:45:31.039Z,73.57
2022-12-25T18:48:03.129Z,72.11
2022-12-25T18:50:40.038Z,70.37
2022-12-25T18:53:11.598Z,71.37
2022-12-25T18:55:43.175Z,72.01
2022-12-25T18:58:14.722Z,71.46
2022-12-25T19:00:46.442Z,70.19
2022-12-25T19:03:18.388Z,70.25
2022-12-25T19:05:49.984Z,69.49
2022-12-25T19:08:21.672Z,70.17
2022-12-25T19:10:53.230Z,74.22
2022-12-25T19:13:24.835Z,71.96
2022-12-25T19:15:59.958Z,69.04
2022-12-25T19:18:31.921Z,68.96
2022-12-25T19:21:05.336Z,71.21
2022-12-25T19:23:37.269Z,68.69
2022-12-25T19:26:10.466Z,68.42
2022-12-25T19:28:42.045Z,68.69
2022-12-25T19:31:14.043Z,69.74
2022-12-25T19:33:45.667Z,70.42
2022-12-25T19:36:17.355Z,70.10
2022-12-25T19:38:48.922Z,70.82
2022-12-25T19:41:20.636Z,70.75
2022-12-25T19:43:52.647Z,69.91
2022-12-25T19:46:31.945Z,70.46
2022-12-25T19:49:04.121Z,71.07
2022-12-25T19:51:38.576Z,69.69
2022-12-25T19:54:14.614Z,72.24
2022-12-25T19:56:46.741Z,71.39
2022-12-25T19:59:18.329Z,70.29
2022-12-25T20:01:50.597Z,70.44
2022-12-25T20:04:22.663Z,70.36
2022-12-25T20:06:54.196Z,70.60
2022-12-25T20:09:25.804Z,72.20
2022-12-25T20:11:57.339Z,73.20
2022-12-25T20:14:28.964Z,71.59
2022-12-25T20:17:00.728Z,72.32
2022-12-25T20:19:32.356Z,70.98
2022-12-25T20:22:05.015Z,70.22
2022-12-25T20:24:36.560Z,71.32
2022-12-25T20:27:08.129Z,69.96
2022-12-25T20:29:39.697Z,69.54
2022-12-25T20:32:11.396Z,69.52
2022-12-25T20:34:43.070Z,68.15
2022-12-25T20:37:14.654Z,68.76
2022-12-25T20:39:46.238Z,68.91
2022-12-25T20:42:17.803Z,68.10
2022-12-25T20:44:49.529Z,70.51
2022-12-25T20:47:21.119Z,69.67
2022-12-25T20:49:52.692Z,68.77
2022-12-25T20:52:24.417Z,70.17
2022-12-25T20:54:56.032Z,69.40
2022-12-25T20:57:27.634Z,68.52
2022-12-25T20:59:59.198Z,70.16
2022-12-25T21:02:34.635Z,70.14
2022-12-25T21:05:08.240Z,70.79
2022-12-25T21:07:39.814Z,71.63
2022-12-25T21:10:11.553Z,71.14
2022-12-25T21:12:43.085Z,70.63
2022-12-25T21:15:15.860Z,70.06
2022-12-25T21:17:47.626Z,71.89
2022-12-25T21:20:19.196Z,71.58
2022-12-25T21:22:50.719Z,71.82
2022-12-25T21:25:22.244Z,70.96
2022-12-25T21:27:54.008Z,72.14
2022-12-25T21:30:25.730Z,73.45
2022-12-25T21:32:57.344Z,70.87
2022-12-25T21:35:28.964Z,72.83
2022-12-25T21:38:00.559Z,72.64
2022-12-25T21:40:35.172Z,78.50
2022-12-25T21:43:06.946Z,79.54
2022-12-25T21:45:38.525Z,74.94
2022-12-25T21:48:10.142Z,74.97
2022-12-25T21:50:41.714Z,73.56
2022-12-25T21:53:17.889Z,75.86
2022-12-25T21:56:00.566Z,75.27
2022-12-25T21:58:32.257Z,73.20
2022-12-25T22:01:04.246Z,72.86
2022-12-25T22:03:36.146Z,73.51
2022-12-25T22:06:07.787Z,74.59
2022-12-25T22:08:39.342Z,78.53
2022-12-25T22:11:10.921Z,76.44
2022-12-25T22:13:42.608Z,75.00
2022-12-25T22:16:14.271Z,73.92
2022-12-25T22:18:46.077Z,73.40
2022-12-25T22:21:19.071Z,71.80
2022-12-25T22:23:51.121Z,72.82
2022-12-25T22:26:22.672Z,72.38
2022-12-25T22:28:54.570Z,72.25
2022-12-25T22:31:26.379Z,69.06
2022-12-25T22:34:00.949Z,69.61
2022-12-25T22:36:32.509Z,69.39
2022-12-25T22:39:04.101Z,70.11
2022-12-25T22:41:35.782Z,70.35
2022-12-25T22:44:17.080Z,68.02
2022-12-25T22:46:49.813Z,69.85
2022-12-25T22:49:21.642Z,69.90
2022-12-25T22:51:53.837Z,69.67
2022-12-25T22:54:29.631Z,70.20
2022-12-25T22:57:01.257Z,72.25
2022-12-25T22:59:33.200Z,71.81
2022-12-25T23:02:04.916Z,78.54
2022-12-25T23:04:36.748Z,75.43
2022-12-25T23:07:08.356Z,72.70
2022-12-25T23:09:41.963Z,73.14
2022-12-25T23:12:13.556Z,73.78
2022-12-25T23:14:45.111Z,72.67
2022-12-25T23:17:16.666Z,73.14
2022-12-25T23:19:48.217Z,72.51
2022-12-25T23:22:19.808Z,72.71
2022-12-25T23:24:51.382Z,71.84
2022-12-25T23:27:22.984Z,72.59
2022-12-25T23:29:54.637Z,71.75
2022-12-25T23:32:26.708Z,71.07
2022-12-25T23:34:58.312Z,69.65
2022-12-25T23:37:30.051Z,72.14
2022-12-25T23:40:02.846Z,70.76
2022-12-25T23:42:34.450Z,70.30
2022-12-25T23:45:06.522Z,68.81
2022-12-25T23:47:38.107Z,73.85
2022-12-25T23:50:09.779Z,70.28
2022-12-25T23:52:41.333Z,70.04
2022-12-25T23:55:12.911Z,69.57
2022-12-25T23:57:44.484Z,71.91
